Time;durP1;ratioP1;P1;durP2;ratioP2;P2;SDS_P1;SDS_P2;PMS_P1;PMS_P2;Temp;Humidity;BMP_temperature;BMP_pressure;BME280_temperature;BME280_humidity;BME280_pressure;Samples;Min_cycle;Max_cycle;Signal;HPM_P1;HPM_P2
2022/08/07 00:01:06;;;;;;;1.02;0.90;;;21.50;48.80;;;;;;4960616;29;20104;-86
2022/08/07 00:03:33;;;;;;;1.25;1.08;;;21.40;48.80;;;;;;4943432;29;20047;-86
2022/08/07 00:05:59;;;;;;;1.50;1.00;;;21.40;49.50;;;;;;4942331;29;20031;-87
2022/08/07 00:08:25;;;;;;;0.80;0.80;;;21.40;48.90;;;;;;4941666;29;20031;-87
2022/08/07 00:10:51;;;;;;;0.98;0.90;;;21.40;49.00;;;;;;4941796;29;20028;-86
2022/08/07 00:13:18;;;;;;;1.30;1.10;;;21.30;48.90;;;;;;4941813;29;20495;-87
2022/08/07 00:15:44;;;;;;;1.40;0.90;;;21.30;49.00;;;;;;4923201;29;20055;-86
2022/08/07 00:18:10;;;;;;;1.13;1.02;;;21.30;49.00;;;;;;4940422;29;20436;-87
2022/08/07 00:20:37;;;;;;;1.42;0.90;;;21.20;49.00;;;;;;4942242;29;20052;-86
2022/08/07 00:23:05;;;;;;;1.00;0.80;;;21.20;49.10;;;;;;4927050;29;20035;-87
2022/08/07 00:25:32;;;;;;;0.98;0.98;;;21.20;49.10;;;;;;4939975;29;20035;-87
2022/08/07 00:27:58;;;;;;;1.33;1.05;;;21.10;49.20;;;;;;4938969;29;20028;-86
2022/08/07 00:30:24;;;;;;;1.10;1.00;;;21.10;49.20;;;;;;4938426;29;20149;-86
2022/08/07 00:32:50;;;;;;;1.20;1.10;;;21.10;49.20;;;;;;4938376;29;20102;-87
2022/08/07 00:35:17;;;;;;;1.02;1.02;;;21.10;49.30;;;;;;4939130;29;20032;-86
2022/08/07 00:37:43;;;;;;;1.73;1.10;;;21.00;49.30;;;;;;4922915;29;20125;-87
2022/08/07 00:40:10;;;;;;;1.13;1.10;;;21.00;49.30;;;;;;4938845;29;20028;-85
2022/08/07 00:42:37;;;;;;;1.20;1.10;;;21.00;49.40;;;;;;4938081;29;20036;-86
2022/08/07 00:45:03;;;;;;;1.20;1.10;;;20.90;49.40;;;;;;4922044;29;20028;-86
2022/08/07 00:47:29;;;;;;;1.08;0.95;;;21.00;49.50;;;;;;4937998;29;20122;-84
2022/08/07 00:49:55;;;;;;;1.10;1.00;;;20.90;49.50;;;;;;4938239;29;20201;-86
2022/08/07 00:52:21;;;;;;;1.60;1.20;;;20.80;49.50;;;;;;4938136;29;20032;-86
2022/08/07 00:54:48;;;;;;;1.13;1.02;;;20.90;49.50;;;;;;4937998;29;20553;-85
2022/08/07 00:57:15;;;;;;;1.67;1.30;;;20.80;49.50;;;;;;4937827;29;20036;-86
2022/08/07 00:59:41;;;;;;;1.42;1.23;;;20.80;49.60;;;;;;4921949;29;20125;-86
2022/08/07 01:02:09;;;;;;;1.63;1.20;;;20.80;49.70;;;;;;4937925;29;20040;-85
2022/08/07 01:04:36;;;;;;;1.17;0.98;;;20.70;49.60;;;;;;4937552;29;20044;-87
2022/08/07 01:07:02;;;;;;;1.42;1.20;;;20.70;49.70;;;;;;4938569;29;20083;-87
2022/08/07 01:09:28;;;;;;;1.40;1.30;;;20.70;49.70;;;;;;4937763;29;20028;-86
2022/08/07 01:11:55;;;;;;;1.70;1.30;;;20.60;49.70;;;;;;4922837;29;20031;-86
2022/08/07 01:14:22;;;;;;;1.38;1.27;;;20.60;49.70;;;;;;4928733;29;20138;-86
2022/08/07 01:16:49;;;;;;;1.33;1.23;;;20.60;49.80;;;;;;4941111;29;20034;-86
2022/08/07 01:19:18;;;;;;;1.33;1.20;;;20.50;49.80;;;;;;4925246;29;20038;-86
2022/08/07 01:21:45;;;;;;;1.20;1.08;;;20.50;49.80;;;;;;4925050;29;20039;-86
2022/08/07 01:24:12;;;;;;;1.67;1.48;;;20.50;49.90;;;;;;4941107;29;20090;-86
2022/08/07 01:26:38;;;;;;;1.92;1.40;;;20.50;50.00;;;;;;4924730;29;20034;-86
2022/08/07 01:29:04;;;;;;;1.30;1.20;;;20.50;50.00;;;;;;4908853;29;20133;-87
2022/08/07 01:31:31;;;;;;;1.48;1.38;;;20.40;50.10;;;;;;4924904;29;20118;-87
2022/08/07 01:34:00;;;;;;;1.50;1.40;;;20.40;50.60;;;;;;4925171;29;20090;-87
2022/08/07 01:36:31;;;;;;;1.38;1.23;;;20.40;50.00;;;;;;4924591;29;20031;-85
2022/08/07 01:38:58;;;;;;;1.80;1.50;;;20.40;50.70;;;;;;4940215;29;20041;-86
2022/08/07 01:41:25;;;;;;;3.90;1.33;;;20.30;50.10;;;;;;4940459;29;20035;-86
2022/08/07 01:43:52;;;;;;;1.60;1.50;;;20.30;50.10;;;;;;4924657;29;20035;-87
2022/08/07 01:46:20;;;;;;;1.52;1.30;;;20.20;50.20;;;;;;4940938;29;20058;-87
2022/08/07 01:48:47;;;;;;;2.13;1.50;;;20.30;50.30;;;;;;4924287;29;20027;-87
2022/08/07 01:51:22;;;;;;;1.95;1.52;;;20.20;50.30;;;;;;4940297;29;20023;-86
2022/08/07 01:53:55;;;;;;;2.38;1.70;;;20.20;50.40;;;;;;4940094;29;20039;-86
2022/08/07 01:56:26;;;;;;;1.50;1.40;;;20.20;50.40;;;;;;4940060;29;20471;-86
2022/08/07 01:59:06;;;;;;;1.52;1.30;;;20.20;50.40;;;;;;4940722;29;20031;-86
2022/08/07 02:01:38;;;;;;;1.85;1.50;;;20.10;50.50;;;;;;4940406;29;20464;-87
2022/08/07 02:04:17;;;;;;;1.58;1.48;;;20.10;50.50;;;;;;4957078;29;20082;-86
2022/08/07 02:06:49;;;;;;;1.48;1.27;;;20.00;50.60;;;;;;4939801;29;20036;-86
2022/08/07 02:09:18;;;;;;;1.58;1.45;;;20.00;50.50;;;;;;4924029;29;20062;-86
2022/08/07 02:11:48;;;;;;;1.80;1.40;;;20.00;50.60;;;;;;4924055;29;20132;-86
2022/08/07 02:14:17;;;;;;;2.63;1.60;;;20.00;50.70;;;;;;4924281;28;20105;-84
2022/08/07 02:16:46;;;;;;;2.20;1.70;;;19.90;50.60;;;;;;4939998;29;20032;-86
2022/08/07 02:19:13;;;;;;;3.50;1.70;;;19.90;50.70;;;;;;4923659;29;20050;-86
2022/08/07 02:21:40;;;;;;;1.95;1.70;;;19.90;50.70;;;;;;4924204;29;20081;-86
2022/08/07 02:24:07;;;;;;;1.50;1.40;;;19.80;50.80;;;;;;4940048;29;20480;-87
2022/08/07 02:26:36;;;;;;;1.80;1.50;;;19.90;50.90;;;;;;4924346;29;20484;-88
2022/08/07 02:29:06;;;;;;;1.65;1.50;;;19.80;50.80;;;;;;4925238;29;20035;-87
2022/08/07 02:31:33;;;;;;;1.70;1.40;;;19.80;50.90;;;;;;4924216;29;20027;-86
2022/08/07 02:34:01;;;;;;;2.85;1.65;;;19.80;51.00;;;;;;4924072;29;20042;-86
2022/08/07 02:36:28;;;;;;;2.22;1.60;;;19.70;50.90;;;;;;4910196;29;20031;-86
2022/08/07 02:39:00;;;;;;;1.92;1.65;;;19.70;51.00;;;;;;4917039;29;20042;-88
2022/08/07 02:41:28;;;;;;;2.17;1.58;;;19.70;51.00;;;;;;4952029;29;20031;-87
2022/08/07 02:43:57;;;;;;;2.00;1.60;;;19.70;51.10;;;;;;4936306;29;20197;-86
2022/08/07 02:46:26;;;;;;;2.55;1.83;;;19.70;51.10;;;;;;4952298;29;20452;-86
2022/08/07 02:48:54;;;;;;;2.45;1.90;;;19.60;51.10;;;;;;4950818;29;20081;-86
2022/08/07 02:51:23;;;;;;;2.42;1.58;;;19.60;51.20;;;;;;4948201;29;20083;-86
2022/08/07 02:53:53;;;;;;;1.50;1.40;;;19.60;51.30;;;;;;4943160;29;20050;-86
2022/08/07 02:56:22;;;;;;;1.95;1.75;;;19.50;51.90;;;;;;4942058;29;20102;-86
2022/08/07 02:58:51;;;;;;;1.98;1.38;;;19.50;51.30;;;;;;4941339;29;20083;-86
2022/08/07 03:01:21;;;;;;;1.83;1.60;;;19.50;51.30;;;;;;4939462;29;20094;-86
2022/08/07 03:03:48;;;;;;;1.83;1.30;;;19.50;51.40;;;;;;4939358;29;20066;-85
2022/08/07 03:06:19;;;;;;;2.08;1.70;;;19.50;51.40;;;;;;4939136;29;20041;-88
2022/08/07 03:08:46;;;;;;;1.95;1.40;;;19.50;51.50;;;;;;4939510;29;20031;-86
2022/08/07 03:11:13;;;;;;;1.92;1.70;;;19.40;51.50;;;;;;4938904;29;20067;-84
2022/08/07 03:13:43;;;;;;;1.73;1.58;;;19.40;51.50;;;;;;4923828;29;20043;-85
2022/08/07 03:16:09;;;;;;;1.95;1.65;;;19.40;51.50;;;;;;4923545;29;20055;-86
2022/08/07 03:18:37;;;;;;;1.90;1.50;;;19.30;51.50;;;;;;4941255;29;20050;-87
2022/08/07 03:21:05;;;;;;;2.28;1.67;;;19.30;51.60;;;;;;4923840;29;20027;-86
2022/08/07 03:23:33;;;;;;;2.30;1.63;;;19.30;51.60;;;;;;4923292;29;20035;-86
2022/08/07 03:26:01;;;;;;;1.95;1.67;;;19.30;51.60;;;;;;4938896;29;20042;-87
2022/08/07 03:28:31;;;;;;;2.08;1.52;;;19.30;51.70;;;;;;4938956;29;20067;-87
2022/08/07 03:33:48;;;;;;;1.67;1.52;;;19.30;51.80;;;;;;4938875;29;20126;-85
2022/08/07 03:36:17;;;;;;;2.08;1.60;;;19.20;51.80;;;;;;4939354;29;20059;-85
2022/08/07 03:38:46;;;;;;;2.38;1.90;;;19.10;51.80;;;;;;4907570;29;20035;-86
2022/08/07 03:41:13;;;;;;;1.70;1.50;;;19.10;51.90;;;;;;4922881;29;20035;-86
2022/08/07 03:43:40;;;;;;;2.08;1.70;;;19.10;51.90;;;;;;4922689;29;20146;-87
2022/08/07 03:46:06;;;;;;;2.38;1.85;;;19.10;51.90;;;;;;4923574;29;20115;-86
2022/08/07 03:48:34;;;;;;;2.08;1.70;;;19.10;52.00;;;;;;4922984;29;20031;-86
2022/08/07 03:51:02;;;;;;;2.88;2.10;;;19.10;52.00;;;;;;4907955;29;20035;-87
2022/08/07 03:53:35;;;;;;;1.83;1.70;;;19.00;52.00;;;;;;4939291;29;20059;-86
2022/08/07 03:56:02;;;;;;;2.38;1.80;;;19.00;52.00;;;;;;4938815;29;20027;-85
2022/08/07 03:58:28;;;;;;;1.95;1.73;;;19.00;52.10;;;;;;4939273;29;20067;-85
2022/08/07 04:00:57;;;;;;;3.22;1.95;;;19.00;52.10;;;;;;4958108;28;20062;-86
2022/08/07 04:03:23;;;;;;;2.17;1.80;;;18.90;52.10;;;;;;4959266;29;20032;-86
2022/08/07 04:05:51;;;;;;;2.15;1.73;;;18.90;52.10;;;;;;4942080;29;20035;-86
2022/08/07 04:08:21;;;;;;;2.00;1.67;;;18.90;52.20;;;;;;4942286;29;20031;-87
2022/08/07 04:10:49;;;;;;;3.35;2.00;;;18.90;52.20;;;;;;4941761;29;20043;-86
2022/08/07 04:13:15;;;;;;;2.72;2.15;;;18.90;52.30;;;;;;4942121;29;20027;-86
2022/08/07 04:15:43;;;;;;;2.72;1.85;;;18.90;52.30;;;;;;4941611;29;20058;-86
2022/08/07 04:18:12;;;;;;;3.17;1.85;;;18.80;52.30;;;;;;4942458;29;20031;-86
2022/08/07 04:20:39;;;;;;;3.35;2.10;;;18.80;52.40;;;;;;4941821;29;20026;-86
2022/08/07 04:23:06;;;;;;;2.20;1.67;;;18.80;52.40;;;;;;4941816;29;20118;-86
2022/08/07 04:25:37;;;;;;;2.50;1.95;;;18.80;52.50;;;;;;4927121;29;20046;-86
2022/08/07 04:28:09;;;;;;;2.53;2.03;;;18.70;52.40;;;;;;4941609;29;20468;-87
2022/08/07 04:30:38;;;;;;;2.40;1.92;;;18.70;52.50;;;;;;4941517;29;20031;-87
2022/08/07 04:33:10;;;;;;;2.13;1.58;;;18.70;52.50;;;;;;4926672;29;20035;-87
2022/08/07 04:35:42;;;;;;;2.40;1.80;;;18.70;52.50;;;;;;4926173;29;20035;-86
2022/08/07 04:38:14;;;;;;;2.75;1.95;;;18.70;53.30;;;;;;4941204;29;20035;-86
2022/08/07 04:40:45;;;;;;;2.15;1.95;;;18.60;52.60;;;;;;4926877;29;20067;-87
2022/08/07 04:43:16;;;;;;;2.00;1.73;;;18.60;52.70;;;;;;4941343;29;20027;-86
2022/08/07 04:46:05;;;;;;;2.78;2.10;;;18.60;52.70;;;;;;4941495;29;20055;-85
2022/08/07 04:48:51;;;;;;;2.70;2.10;;;18.60;52.80;;;;;;4925970;29;20090;-86
2022/08/07 04:51:44;;;;;;;2.00;1.80;;;18.50;52.80;;;;;;4925913;29;20027;-86
2022/08/07 04:54:34;;;;;;;2.42;1.88;;;18.50;52.70;;;;;;4919286;29;20644;-86
2022/08/07 04:57:21;;;;;;;2.15;1.80;;;18.50;52.90;;;;;;4926009;29;20035;-84
2022/08/07 05:00:08;;;;;;;2.28;1.77;;;18.50;53.00;;;;;;4941229;29;20031;-88
2022/08/07 05:02:47;;;;;;;2.13;1.65;;;18.50;53.10;;;;;;4926425;29;20077;-86
2022/08/07 05:05:40;;;;;;;2.55;2.00;;;18.50;53.00;;;;;;4958906;29;20041;-86
2022/08/07 05:08:25;;;;;;;2.35;1.85;;;18.40;53.10;;;;;;4943116;29;20039;-85
2022/08/07 05:11:00;;;;;;;2.17;1.77;;;18.40;53.10;;;;;;4927939;28;20118;-85
2022/08/07 05:13:38;;;;;;;2.55;1.77;;;18.40;53.10;;;;;;4941667;29;20035;-85
2022/08/07 05:16:08;;;;;;;2.75;2.25;;;18.40;53.10;;;;;;4940670;29;20051;-85
2022/08/07 05:18:49;;;;;;;2.55;2.00;;;18.40;53.10;;;;;;4958407;29;20033;-86
2022/08/07 05:21:19;;;;;;;2.50;2.10;;;18.40;53.30;;;;;;4941666;29;20038;-85
2022/08/07 05:23:50;;;;;;;2.35;1.88;;;18.40;53.20;;;;;;4958124;29;20035;-84
2022/08/07 05:26:21;;;;;;;2.92;2.13;;;18.30;53.20;;;;;;4940680;29;20039;-85
2022/08/07 05:28:53;;;;;;;2.78;2.03;;;18.30;53.20;;;;;;4925973;29;20042;-86
2022/08/07 05:31:28;;;;;;;2.40;2.00;;;18.30;53.20;;;;;;4925460;29;20035;-86
2022/08/07 05:33:56;;;;;;;2.72;2.10;;;18.40;53.30;;;;;;4942163;29;20038;-85
2022/08/07 05:36:23;;;;;;;2.88;2.17;;;18.30;53.30;;;;;;4942691;29;20189;-85
2022/08/07 05:38:51;;;;;;;2.38;1.90;;;18.30;53.30;;;;;;4943160;29;20035;-86
2022/08/07 05:41:18;;;;;;;2.50;1.98;;;18.30;53.30;;;;;;4942579;29;20090;-87
2022/08/07 05:43:54;;;;;;;2.95;2.10;;;18.30;53.40;;;;;;4942277;29;20102;-85
2022/08/07 05:46:20;;;;;;;3.28;1.90;;;18.30;53.40;;;;;;4942485;29;20035;-86
2022/08/07 05:48:49;;;;;;;3.17;2.20;;;18.30;53.40;;;;;;4925553;29;20426;-86
2022/08/07 05:51:15;;;;;;;3.28;2.10;;;18.40;53.50;;;;;;4940609;29;20023;-85
2022/08/07 05:53:41;;;;;;;2.67;1.88;;;18.30;53.50;;;;;;4940064;29;20036;-87
2022/08/07 05:56:08;;;;;;;3.50;2.30;;;18.30;53.40;;;;;;4939943;29;20118;-86
2022/08/07 05:58:41;;;;;;;3.30;2.10;;;18.30;53.50;;;;;;4940135;29;20039;-86
2022/08/07 06:01:11;;;;;;;2.85;2.22;;;18.30;53.50;;;;;;4924916;29;20126;-86
2022/08/07 06:03:47;;;;;;;2.92;2.03;;;18.30;53.50;;;;;;4924700;29;20063;-86
2022/08/07 06:06:14;;;;;;;2.67;2.10;;;18.30;53.50;;;;;;4940342;29;20440;-86
2022/08/07 06:08:41;;;;;;;3.00;2.22;;;18.30;53.50;;;;;;4925738;29;20342;-86
2022/08/07 06:11:08;;;;;;;2.83;2.08;;;18.30;53.50;;;;;;4925450;29;20042;-86
2022/08/07 06:13:36;;;;;;;2.53;2.10;;;18.30;53.50;;;;;;4925431;29;20483;-86
2022/08/07 06:16:05;;;;;;;2.88;2.28;;;18.30;53.50;;;;;;4940740;29;20047;-86
2022/08/07 06:18:32;;;;;;;3.20;2.05;;;18.30;53.50;;;;;;4940253;29;20035;-86
2022/08/07 06:21:03;;;;;;;3.30;2.38;;;18.30;53.50;;;;;;4924556;29;20071;-86
2022/08/07 06:23:30;;;;;;;3.45;2.00;;;18.30;53.60;;;;;;4923565;29;20042;-86
2022/08/07 06:25:57;;;;;;;3.33;2.30;;;18.30;53.50;;;;;;4924315;29;20110;-86
2022/08/07 06:28:25;;;;;;;2.90;2.28;;;18.30;53.50;;;;;;4939805;29;20031;-86
2022/08/07 06:30:51;;;;;;;2.88;2.17;;;18.30;53.50;;;;;;4939468;29;20078;-85
2022/08/07 06:33:18;;;;;;;3.42;2.22;;;18.30;53.50;;;;;;4924264;29;20029;-86
2022/08/07 06:35:46;;;;;;;2.58;2.08;;;18.30;53.50;;;;;;4923895;29;20042;-85
2022/08/07 06:38:12;;;;;;;2.90;2.00;;;18.30;53.50;;;;;;4923578;29;20464;-86
2022/08/07 06:40:46;;;;;;;3.15;2.35;;;18.40;53.50;;;;;;4923816;29;20031;-86
2022/08/07 06:43:14;;;;;;;2.65;2.00;;;18.30;53.50;;;;;;4956665;29;20039;-87
2022/08/07 06:46:04;;;;;;;3.15;2.20;;;18.40;53.50;;;;;;4941539;29;20055;-84
2022/08/07 06:48:29;;;;;;;2.83;2.00;;;18.40;53.50;;;;;;4923843;29;20027;-86
2022/08/07 06:50:59;;;;;;;2.83;2.13;;;18.40;53.50;;;;;;4907911;29;20548;-86
2022/08/07 06:53:26;;;;;;;2.13;1.92;;;18.40;53.50;;;;;;4939640;29;20030;-85
2022/08/07 06:55:54;;;;;;;3.30;2.20;;;18.40;53.50;;;;;;4939518;29;20035;-87
2022/08/07 06:58:22;;;;;;;2.85;2.15;;;18.40;53.50;;;;;;4940410;29;20457;-90
2022/08/07 07:00:54;;;;;;;3.20;2.15;;;18.40;53.50;;;;;;4925483;29;20055;-87
2022/08/07 07:03:22;;;;;;;2.67;2.08;;;18.40;53.50;;;;;;4926278;29;20523;-85
2022/08/07 07:05:48;;;;;;;3.00;2.13;;;18.40;53.50;;;;;;4928103;29;20181;-85
2022/08/07 07:08:14;;;;;;;2.72;2.03;;;18.40;53.50;;;;;;4913917;29;20082;-85
2022/08/07 07:10:40;;;;;;;2.95;2.10;;;18.50;54.10;;;;;;4942890;29;20031;-86
2022/08/07 07:13:19;;;;;;;2.88;2.03;;;18.50;53.50;;;;;;4926145;29;20042;-86
2022/08/07 07:15:52;;;;;;;2.92;2.08;;;18.50;53.60;;;;;;4940365;29;20052;-85
2022/08/07 07:18:20;;;;;;;3.17;2.40;;;18.50;53.50;;;;;;4939403;29;20114;-84
2022/08/07 07:20:56;;;;;;;2.60;2.05;;;18.50;53.50;;;;;;4939219;29;20071;-85
2022/08/07 07:23:23;;;;;;;2.80;2.10;;;18.50;53.50;;;;;;4923641;29;20469;-86
2022/08/07 07:25:58;;;;;;;3.15;2.20;;;18.50;53.50;;;;;;4923312;29;20035;-85
2022/08/07 07:28:34;;;;;;;3.05;2.17;;;18.50;53.60;;;;;;4939592;29;20035;-85
2022/08/07 07:31:04;;;;;;;2.42;1.90;;;18.60;53.60;;;;;;4940025;29;20027;-85
2022/08/07 07:33:32;;;;;;;2.83;2.10;;;18.60;53.60;;;;;;4940843;29;20032;-84
2022/08/07 07:36:00;;;;;;;2.90;2.33;;;18.60;53.60;;;;;;4926376;29;20027;-86
2022/08/07 07:38:26;;;;;;;2.58;1.90;;;18.60;53.60;;;;;;4942944;29;20035;-85
2022/08/07 07:40:57;;;;;;;3.15;2.20;;;18.60;53.60;;;;;;4942686;29;20110;-85
2022/08/07 07:43:25;;;;;;;2.65;2.13;;;18.60;53.70;;;;;;4942042;29;20035;-85
2022/08/07 07:45:52;;;;;;;3.10;2.50;;;18.70;53.70;;;;;;4926528;29;20031;-85
2022/08/07 07:48:21;;;;;;;2.60;2.03;;;18.70;53.70;;;;;;4926961;29;20043;-85
2022/08/07 07:50:49;;;;;;;2.17;1.80;;;18.70;53.70;;;;;;4942450;29;20035;-86
2022/08/07 07:53:19;;;;;;;3.13;2.25;;;18.80;53.70;;;;;;4942297;29;20037;-85
2022/08/07 07:55:45;;;;;;;2.95;2.20;;;18.80;53.70;;;;;;4941655;29;20042;-83
2022/08/07 07:58:12;;;;;;;2.78;2.17;;;18.80;53.70;;;;;;4925925;29;20031;-84
2022/08/07 08:00:39;;;;;;;3.47;2.25;;;18.80;53.70;;;;;;4958778;29;20031;-86
2022/08/07 08:03:12;;;;;;;2.58;1.90;;;18.90;53.70;;;;;;4925613;29;20042;-85
2022/08/07 08:05:41;;;;;;;2.45;1.90;;;18.90;53.70;;;;;;4958692;29;20031;-86
2022/08/07 08:08:08;;;;;;;2.85;2.05;;;19.00;53.70;;;;;;4926209;29;20035;-86
2022/08/07 08:10:35;;;;;;;2.70;2.00;;;19.00;53.70;;;;;;4926211;29;20032;-85
2022/08/07 08:13:02;;;;;;;3.22;2.08;;;19.00;53.60;;;;;;4958858;29;20027;-85
2022/08/07 08:15:32;;;;;;;2.47;2.03;;;19.10;53.70;;;;;;4941627;29;20061;-85
2022/08/07 08:17:59;;;;;;;2.78;1.95;;;19.10;53.60;;;;;;4941232;29;20086;-86
2022/08/07 08:20:30;;;;;;;2.42;1.95;;;19.20;53.50;;;;;;4941543;29;20031;-83
2022/08/07 08:28:31;;;;;;;2.35;1.88;;;19.40;53.30;;;;;;4959979;29;20028;-86
2022/08/07 08:31:00;;;;;;;3.20;1.90;;;19.50;53.20;;;;;;4929428;29;20020;-85
2022/08/07 08:33:34;;;;;;;2.17;1.77;;;19.50;53.20;;;;;;4948801;29;20079;-86
2022/08/07 08:36:01;;;;;;;3.00;2.07;;;19.60;53.20;;;;;;4948821;29;20031;-82
2022/08/07 08:38:37;;;;;;;2.00;1.80;;;19.70;53.00;;;;;;4928108;29;20050;-85
2022/08/07 08:41:16;;;;;;;2.10;1.73;;;19.80;53.10;;;;;;4944355;29;20034;-84
2022/08/07 08:44:07;;;;;;;2.10;1.60;;;19.80;53.00;;;;;;4959367;29;20042;-86
2022/08/07 08:46:47;;;;;;;1.90;1.60;;;19.90;52.90;;;;;;4941253;29;20039;-86
2022/08/07 08:49:35;;;;;;;2.33;1.60;;;20.00;52.80;;;;;;4959119;29;20039;-87
2022/08/07 08:52:09;;;;;;;2.47;1.70;;;20.10;52.80;;;;;;4958947;29;20027;-86
2022/08/07 08:54:56;;;;;;;;;;;20.20;52.70;;;;;;4942347;29;20121;-86
2022/08/07 08:57:46;;;;;;;2.17;1.40;;;20.30;52.40;;;;;;4942008;29;20332;-84
2022/08/07 09:00:13;;;;;;;2.70;1.58;;;20.40;52.40;;;;;;4958201;29;20110;-84
2022/08/07 09:03:08;;;;;;;1.67;1.30;;;20.50;52.40;;;;;;4942020;29;20028;-84
2022/08/07 09:06:09;;;;;;;1.60;1.50;;;20.60;52.50;;;;;;4959638;29;20055;-83
2022/08/07 09:08:56;;;;;;;1.58;1.45;;;20.60;52.50;;;;;;4942933;29;20028;-85
2022/08/07 09:11:33;;;;;;;1.45;1.30;;;20.80;52.30;;;;;;4926111;29;20042;-84
2022/08/07 09:14:42;;;;;;;1.42;1.30;;;20.90;52.30;;;;;;4958527;29;20035;-84
2022/08/07 09:17:35;;;;;;;1.77;1.42;;;21.00;52.30;;;;;;4883926;29;20040;-85
2022/08/07 09:20:56;;;;;;;1.80;1.50;;;21.10;52.10;;;;;;4884124;29;20064;-83
2022/08/07 09:23:40;;;;;;;1.52;1.33;;;21.20;52.10;;;;;;4898724;29;20470;-85
2022/08/07 09:26:37;;;;;;;1.33;1.23;;;21.40;52.00;;;;;;4957887;29;20040;-85
2022/08/07 09:29:34;;;;;;;1.92;1.30;;;21.50;52.10;;;;;;4958186;29;20059;-84
2022/08/07 09:32:24;;;;;;;1.30;1.20;;;21.60;51.90;;;;;;4940957;29;20027;-84
2022/08/07 09:35:26;;;;;;;1.42;1.33;;;21.70;52.00;;;;;;4940449;29;20059;-84
2022/08/07 09:37:57;;;;;;;1.35;1.25;;;21.80;51.90;;;;;;4924716;29;20515;-84
2022/08/07 09:40:34;;;;;;;1.35;1.25;;;21.90;51.80;;;;;;4957189;29;20146;-83
2022/08/07 09:43:05;;;;;;;1.88;1.40;;;22.10;51.90;;;;;;4939796;29;20035;-84
2022/08/07 09:45:55;;;;;;;1.85;1.25;;;22.20;51.80;;;;;;4940854;29;20038;-84
2022/08/07 09:48:33;;;;;;;1.80;1.27;;;22.30;51.90;;;;;;4924344;29;20031;-84
2022/08/07 09:51:06;;;;;;;1.23;1.13;;;22.40;51.90;;;;;;4940679;29;20047;-84
2022/08/07 09:53:41;;;;;;;1.38;1.27;;;22.50;51.80;;;;;;4925024;29;20128;-84
2022/08/07 09:56:46;;;;;;;1.42;1.33;;;22.60;51.80;;;;;;4942209;29;20027;-86
2022/08/07 09:59:22;;;;;;;2.20;1.30;;;22.80;51.90;;;;;;4941461;29;20031;-84
2022/08/07 10:02:22;;;;;;;1.10;1.05;;;22.90;51.60;;;;;;4942574;29;20058;-85
2022/08/07 10:05:09;;;;;;;1.45;1.17;;;23.00;51.80;;;;;;4957959;29;20456;-84
2022/08/07 10:08:00;;;;;;;1.42;1.20;;;23.10;51.70;;;;;;4939882;29;20537;-85
2022/08/07 10:10:58;;;;;;;0.98;0.98;;;23.20;51.70;;;;;;4957123;29;20027;-85
2022/08/07 10:13:42;;;;;;;1.42;1.20;;;23.30;51.60;;;;;;4939642;29;20118;-84
2022/08/07 10:16:13;;;;;;;1.15;1.00;;;23.40;51.50;;;;;;4956930;29;20079;-83
2022/08/07 10:19:16;;;;;;;1.27;0.95;;;23.60;51.50;;;;;;4956634;29;20031;-81
2022/08/07 10:22:16;;;;;;;1.50;1.40;;;23.70;51.60;;;;;;4952218;29;20483;-84
2022/08/07 10:25:30;;;;;;;1.10;1.00;;;23.80;51.40;;;;;;4956515;29;20031;-84
2022/08/07 10:27:56;;;;;;;1.00;0.93;;;24.00;51.50;;;;;;4904591;29;20045;-84
2022/08/07 10:30:46;;;;;;;1.30;1.13;;;24.10;51.30;;;;;;4939127;29;20035;-85
2022/08/07 10:33:30;;;;;;;1.25;1.15;;;24.20;51.40;;;;;;4939139;29;20039;-85
2022/08/07 10:36:15;;;;;;;1.15;1.05;;;24.30;51.30;;;;;;4939270;29;20098;-85
2022/08/07 10:38:54;;;;;;;1.02;1.00;;;24.40;51.30;;;;;;4939248;29;20110;-85
2022/08/07 10:41:26;;;;;;;1.60;0.93;;;24.50;51.20;;;;;;4939501;29;20038;-85
2022/08/07 10:44:10;;;;;;;0.93;0.93;;;24.60;51.20;;;;;;4939869;29;20035;-85
2022/08/07 10:46:52;;;;;;;1.00;0.90;;;24.80;51.20;;;;;;4923085;29;20043;-86
2022/08/07 10:49:39;;;;;;;1.02;0.93;;;24.80;51.10;;;;;;4956007;29;20031;-86
2022/08/07 10:52:13;;;;;;;1.00;1.00;;;25.00;51.00;;;;;;4955783;29;20024;-86
2022/08/07 10:54:45;;;;;;;1.20;1.10;;;25.10;50.80;;;;;;4939632;29;20074;-85
2022/08/07 10:57:24;;;;;;;1.00;1.00;;;25.20;51.10;;;;;;4923247;29;20102;-85
2022/08/07 11:00:08;;;;;;;1.10;1.00;;;25.30;51.00;;;;;;4939051;29;20038;-85
2022/08/07 11:02:58;;;;;;;1.10;1.00;;;25.40;50.80;;;;;;4956446;29;20031;-86
2022/08/07 11:05:43;;;;;;;1.08;1.00;;;25.50;50.80;;;;;;4922635;29;20065;-85
2022/08/07 11:08:30;;;;;;;1.23;1.10;;;25.60;50.80;;;;;;4938715;29;20059;-85
2022/08/07 11:11:21;;;;;;;1.63;1.10;;;25.70;50.70;;;;;;4938184;29;20035;-85
2022/08/07 11:13:50;;;;;;;0.93;0.93;;;25.70;50.60;;;;;;4955931;29;20027;-85
2022/08/07 11:16:34;;;;;;;1.10;1.00;;;25.80;50.70;;;;;;4955844;29;20133;-81
2022/08/07 11:19:44;;;;;;;1.35;1.10;;;25.90;50.70;;;;;;4938033;29;20028;-83
2022/08/07 11:22:14;;;;;;;1.10;1.00;;;25.90;50.70;;;;;;4938734;29;20038;-83
2022/08/07 11:24:54;;;;;;;0.82;0.80;;;26.00;50.50;;;;;;4923387;29;20035;-83
2022/08/07 11:27:30;;;;;;;1.00;1.00;;;26.10;50.60;;;;;;4940231;29;20062;-84
2022/08/07 11:30:04;;;;;;;1.63;1.17;;;26.10;50.80;;;;;;4944983;29;20027;-83
2022/08/07 11:32:50;;;;;;;1.20;1.10;;;26.10;51.20;;;;;;4963064;29;20032;-81
2022/08/07 11:36:04;;;;;;;1.15;1.05;;;26.20;51.00;;;;;;4943718;29;20267;-87
2022/08/07 11:38:56;;;;;;;1.23;1.10;;;26.20;51.30;;;;;;4883586;29;20033;-83
2022/08/07 11:41:27;;;;;;;0.93;0.93;;;26.30;51.30;;;;;;4937781;29;20039;-87
2022/08/07 11:44:25;;;;;;;1.45;1.20;;;26.40;51.40;;;;;;4922898;29;20106;-82
2022/08/07 11:47:08;;;;;;;1.58;1.10;;;26.40;51.40;;;;;;4938656;29;20460;-84
2022/08/07 11:50:15;;;;;;;1.60;1.30;;;26.40;51.20;;;;;;4938474;29;20048;-84
2022/08/07 11:53:25;;;;;;;1.88;1.10;;;26.50;51.60;;;;;;4910372;29;20154;-83
2022/08/07 11:56:13;;;;;;;0.82;0.82;;;26.50;51.70;;;;;;4937881;29;20039;-85
2022/08/07 11:59:16;;;;;;;1.52;1.00;;;26.50;52.00;;;;;;4937814;29;20031;-85
2022/08/07 12:02:07;;;;;;;2.08;1.08;;;26.50;51.90;;;;;;4923071;29;20070;-84
2022/08/07 12:04:52;;;;;;;1.50;1.15;;;26.60;51.80;;;;;;4939304;29;20046;-85
2022/08/07 12:07:36;;;;;;;1.55;1.30;;;26.60;51.80;;;;;;4938051;29;20040;-84
2022/08/07 12:10:07;;;;;;;1.30;1.20;;;26.60;51.70;;;;;;4937668;29;20027;-83
2022/08/07 12:12:51;;;;;;;1.27;1.17;;;26.70;51.70;;;;;;4937870;29;20079;-84
2022/08/07 12:15:23;;;;;;;1.35;1.13;;;26.70;51.60;;;;;;4955306;28;20055;-84
2022/08/07 12:17:54;;;;;;;1.20;1.10;;;26.70;51.50;;;;;;4937339;29;20179;-82
2022/08/07 12:20:27;;;;;;;1.30;1.20;;;26.70;51.60;;;;;;4938990;28;20073;-86
2022/08/07 12:23:30;;;;;;;1.58;1.13;;;26.70;51.60;;;;;;4941801;29;20031;-83
2022/08/07 12:26:25;;;;;;;1.42;1.30;;;26.70;51.70;;;;;;4958336;29;20038;-83
2022/08/07 12:29:02;;;;;;;1.48;1.17;;;26.80;51.50;;;;;;4941218;29;20066;-83
2022/08/07 12:31:37;;;;;;;1.50;1.40;;;26.80;51.30;;;;;;4942048;29;20027;-84
2022/08/07 12:34:04;;;;;;;1.30;1.20;;;26.80;51.20;;;;;;4941657;29;20066;-85
2022/08/07 12:36:33;;;;;;;1.77;1.55;;;26.80;51.20;;;;;;4941450;29;20031;-85
2022/08/07 12:39:03;;;;;;;1.30;1.20;;;26.80;51.20;;;;;;4941467;29;20027;-82
2022/08/07 12:41:32;;;;;;;1.45;1.20;;;26.90;51.30;;;;;;4926101;29;20499;-84
2022/08/07 12:43:59;;;;;;;1.60;1.50;;;26.90;50.90;;;;;;4928373;29;20073;-84
2022/08/07 12:46:53;;;;;;;1.60;1.35;;;26.90;50.40;;;;;;4963510;29;20111;-84
2022/08/07 12:49:34;;;;;;;1.60;1.20;;;26.90;50.10;;;;;;4942917;29;20035;-89
2022/08/07 12:52:13;;;;;;;1.40;1.30;;;26.90;50.00;;;;;;4941800;29;20030;-85
2022/08/07 12:54:46;;;;;;;2.17;1.50;;;26.90;50.00;;;;;;4941830;29;20110;-86
2022/08/07 12:57:16;;;;;;;2.28;1.40;;;27.00;50.00;;;;;;4941156;29;20027;-84
2022/08/07 12:59:43;;;;;;;1.40;1.27;;;27.00;50.00;;;;;;4957617;29;20058;-82
2022/08/07 13:02:22;;;;;;;1.20;1.10;;;27.00;49.90;;;;;;4925382;29;20027;-83
2022/08/07 13:05:13;;;;;;;1.50;1.40;;;27.00;49.70;;;;;;4940394;29;20066;-84
2022/08/07 13:08:12;;;;;;;1.63;1.40;;;27.00;49.70;;;;;;4924847;29;20035;-82
2022/08/07 13:10:45;;;;;;;1.30;1.20;;;27.00;49.70;;;;;;4909543;29;20098;-86
2022/08/07 13:13:27;;;;;;;1.58;1.48;;;27.10;49.40;;;;;;4940670;29;20035;-87
2022/08/07 13:16:09;;;;;;;2.28;1.40;;;27.10;49.00;;;;;;4957287;29;20058;-84
2022/08/07 13:19:03;;;;;;;1.55;1.35;;;27.10;48.90;;;;;;4957594;29;20484;-84
2022/08/07 13:22:05;;;;;;;2.15;1.40;;;27.10;48.90;;;;;;4940587;29;20028;-84
2022/08/07 13:24:47;;;;;;;1.23;1.13;;;27.10;49.10;;;;;;4930138;29;20463;-85
2022/08/07 13:27:33;;;;;;;1.35;1.25;;;27.10;49.20;;;;;;4957195;29;20031;-84
2022/08/07 13:30:05;;;;;;;1.45;1.20;;;27.10;49.30;;;;;;4939601;29;20555;-84
2022/08/07 13:32:55;;;;;;;2.08;1.23;;;27.20;49.40;;;;;;4956825;28;20448;-84
2022/08/07 13:35:42;;;;;;;1.35;1.25;;;27.20;49.50;;;;;;4940508;29;20039;-84